createdAt,value
2022-09-20T00:04:56.173Z,100056.69
2022-09-20T00:09:58.017Z,100051.69
2022-09-20T00:14:59.617Z,100054.44
2022-09-20T00:20:01.393Z,100054.91
2022-09-20T00:25:03.063Z,100055.81
2022-09-20T00:30:05.151Z,100046.00
2022-09-20T00:35:08.524Z,100046.16
2022-09-20T00:40:16.375Z,100039.53
2022-09-20T00:45:24.614Z,100041.34
2022-09-20T00:50:47.274Z,100042.91
2022-09-20T00:55:56.827Z,100039.09
2022-09-20T01:00:59.920Z,100049.59
2022-09-20T01:06:06.837Z,100039.88
2022-09-20T01:11:08.503Z,100044.28
2022-09-20T01:16:11.902Z,100056.94
2022-09-20T01:21:14.710Z,100045.47
2022-09-20T01:26:38.215Z,100041.00
2022-09-20T01:31:53.351Z,100043.38
2022-09-20T01:37:02.432Z,100040.09
2022-09-20T01:42:14.340Z,100041.72
2022-09-20T01:47:21.941Z,100040.16
2022-09-20T01:53:10.720Z,100045.25
2022-09-20T01:58:12.293Z,100046.03
2022-09-20T02:03:42.923Z,100048.03
2022-09-20T02:09:31.941Z,100044.34
2022-09-20T02:14:58.255Z,100047.25
2022-09-20T02:20:09.429Z,100038.59
2022-09-20T02:25:16.983Z,100049.19
2022-09-20T02:30:40.049Z,100047.41
2022-09-20T02:36:09.444Z,100046.16
2022-09-20T02:41:23.235Z,100046.97
2022-09-20T02:46:37.153Z,100051.94
2022-09-20T02:52:00.252Z,100054.50
2022-09-20T02:57:29.588Z,100060.56
2022-09-20T03:02:57.818Z,100065.19
2022-09-20T03:08:20.728Z,100059.88
2022-09-20T03:13:50.930Z,100062.03
2022-09-20T03:19:17.351Z,100064.63
2022-09-20T03:24:55.064Z,100070.13
2022-09-20T03:30:10.143Z,100074.69
2022-09-20T03:35:59.734Z,100074.09
2022-09-20T03:41:13.444Z,100071.09
2022-09-20T03:46:30.101Z,100074.03
2022-09-20T03:52:02.943Z,100076.84
2022-09-20T03:57:09.593Z,100076.81
2022-09-20T04:02:19.840Z,100086.53
2022-09-20T04:07:43.538Z,100090.91
2022-09-20T04:13:09.645Z,100101.84
2022-09-20T04:18:59.498Z,100098.31
2022-09-20T04:24:10.218Z,100096.59
2022-09-20T04:29:31.125Z,100099.97
2022-09-20T04:34:57.314Z,100101.16
2022-09-20T04:40:04.883Z,100111.13
2022-09-20T04:45:09.600Z,100113.13
2022-09-20T04:50:13.919Z,100117.47
2022-09-20T04:55:21.633Z,100123.16
2022-09-20T05:00:24.515Z,100127.66
2022-09-20T05:05:32.117Z,100127.16
2022-09-20T05:10:58.460Z,100127.00
2022-09-20T05:16:18.570Z,100135.16
2022-09-20T05:21:29.180Z,100139.75
2022-09-20T05:26:49.056Z,100137.34
2022-09-20T05:32:00.455Z,100152.66
2022-09-20T05:37:06.317Z,100153.38
2022-09-20T05:42:20.978Z,100160.41
2022-09-20T05:47:53.584Z,100160.50
2022-09-20T05:53:32.582Z,100167.31
2022-09-20T05:58:54.491Z,100172.22
2022-09-20T06:04:21.235Z,100177.53
2022-09-20T06:09:29.846Z,100176.88
2022-09-20T06:15:02.753Z,100191.88
2022-09-20T06:20:33.212Z,100180.88
2022-09-20T06:25:44.741Z,100183.72
2022-09-20T06:30:55.725Z,100184.31
2022-09-20T06:36:23.153Z,100184.34
2022-09-20T06:41:29.119Z,100182.78
2022-09-20T06:46:34.222Z,100186.66
2022-09-20T06:51:38.410Z,100197.88
2022-09-20T06:56:40.219Z,100193.06
2022-09-20T07:01:43.351Z,100202.69
2022-09-20T07:06:45.144Z,100202.78
2022-09-20T07:11:46.753Z,100214.66
2022-09-20T07:16:48.495Z,100207.19
2022-09-20T07:21:50.080Z,100221.34
2022-09-20T07:26:57.337Z,100226.22
2022-09-20T07:31:59.009Z,100226.19
2022-09-20T07:37:00.595Z,100241.34
2022-09-20T07:42:06.152Z,100246.88
2022-09-20T07:47:10.144Z,100238.53
2022-09-20T07:52:11.790Z,100256.16
2022-09-20T07:57:13.459Z,100256.97
2022-09-20T08:02:16.722Z,100260.06
2022-09-20T08:07:18.632Z,100264.75
2022-09-20T08:17:41.817Z,100267.13
2022-09-20T08:22:43.613Z,100258.09
2022-09-20T08:27:45.389Z,100268.50
2022-09-20T08:32:47.048Z,100269.13
2022-09-20T08:37:48.634Z,100277.28
2022-09-20T08:42:50.226Z,100271.94
2022-09-20T08:47:58.893Z,100275.53
2022-09-20T08:53:05.451Z,100284.97
2022-09-20T08:58:11.120Z,100285.78
2022-09-20T09:03:14.500Z,100295.44
2022-09-20T09:08:27.292Z,100293.41
2022-09-20T09:13:41.610Z,100297.53
2022-09-20T09:18:45.610Z,100291.03
2022-09-20T09:23:53.240Z,100296.63
2022-09-20T09:29:15.714Z,100285.44
2022-09-20T09:34:33.393Z,100283.13
2022-09-20T09:39:38.561Z,100298.56
2022-09-20T09:44:40.129Z,100296.47
2022-09-20T09:50:00.804Z,100293.47
2022-09-20T09:55:06.017Z,100303.72
2022-09-20T10:00:18.995Z,100306.38
2022-09-20T10:05:47.759Z,100303.38
2022-09-20T10:10:52.859Z,100305.31
2022-09-20T10:16:17.549Z,100317.66
2022-09-20T10:22:04.518Z,100304.41
2022-09-20T10:27:14.453Z,100303.66
2022-09-20T10:32:37.996Z,100308.44
2022-09-20T10:38:03.475Z,100318.03
2022-09-20T10:43:17.158Z,100314.19
2022-09-20T10:48:32.653Z,100308.72
2022-09-20T10:53:37.315Z,100312.41
2022-09-20T10:58:45.298Z,100299.47
2022-09-20T11:04:09.020Z,100305.69
2022-09-20T11:09:18.795Z,100311.03
2022-09-20T11:14:30.116Z,100311.94
2022-09-20T11:20:06.220Z,100313.25
2022-09-20T11:25:29.433Z,100317.50
2022-09-20T11:30:36.353Z,100320.16
2022-09-20T11:35:55.000Z,100316.00
2022-09-20T11:41:11.850Z,100319.31
2022-09-20T11:46:22.059Z,100318.59
2022-09-20T11:51:54.644Z,100313.59
2022-09-20T11:56:57.782Z,100318.00
2022-09-20T12:02:02.904Z,100301.75
2022-09-20T12:07:18.487Z,100311.31
2022-09-20T12:12:37.790Z,100309.25
2022-09-20T12:17:49.196Z,100302.19
2022-09-20T12:22:50.850Z,100292.88
2022-09-20T12:27:53.425Z,100311.59
2022-09-20T12:32:58.668Z,100308.63
2022-09-20T12:38:17.116Z,100306.53
2022-09-20T12:43:22.414Z,100305.69
2022-09-20T12:48:24.707Z,100304.34
2022-09-20T12:53:26.488Z,100297.31
2022-09-20T12:58:51.515Z,100294.69
2022-09-20T13:03:53.281Z,100299.84
2022-09-20T13:09:09.644Z,100306.19
2022-09-20T13:14:16.167Z,100304.66
2022-09-20T13:19:18.191Z,100313.94
2022-09-20T13:24:21.027Z,100301.88
2022-09-20T13:29:37.650Z,100313.91
2022-09-20T13:34:39.339Z,100305.72
2022-09-20T13:39:42.095Z,100308.47
2022-09-20T13:44:43.815Z,100309.34
2022-09-20T13:49:45.496Z,100306.88
2022-09-20T13:54:48.494Z,100305.75
2022-09-20T13:59:51.152Z,100309.06
2022-09-20T14:04:56.128Z,100342.34
2022-09-20T14:09:59.018Z,100348.06
2022-09-20T14:15:10.545Z,100361.50
2022-09-20T14:20:17.064Z,100369.84
2022-09-20T14:25:22.028Z,100383.22
2022-09-20T14:30:35.168Z,100394.47
2022-09-20T14:35:36.878Z,100387.16
2022-09-20T14:40:45.159Z,100375.22
2022-09-20T14:45:54.261Z,100358.16
2022-09-20T14:51:26.066Z,100347.44
2022-09-20T14:56:39.611Z,100341.50
2022-09-20T15:01:45.971Z,100336.06
2022-09-20T15:06:49.035Z,100343.88
2022-09-20T15:12:20.411Z,100356.19
2022-09-20T15:17:22.400Z,100356.66
2022-09-20T15:22:24.145Z,100356.97
2022-09-20T15:27:28.363Z,100366.81
2022-09-20T15:32:30.482Z,100365.78
2022-09-20T15:37:32.080Z,100368.28
2022-09-20T15:42:38.001Z,100374.63
2022-09-20T15:47:40.711Z,100382.59
2022-09-20T15:52:42.527Z,100379.16
2022-09-20T15:57:44.730Z,100383.38
2022-09-20T16:02:50.126Z,100383.31
2022-09-20T16:07:51.861Z,100383.53
2022-09-20T16:12:53.593Z,100385.28
2022-09-20T16:18:13.926Z,100395.53
2022-09-20T16:23:15.709Z,100395.97
2022-09-20T16:28:17.366Z,100405.47
2022-09-20T16:33:18.969Z,100407.59
2022-09-20T16:38:20.762Z,100413.94
2022-09-20T16:43:26.464Z,100425.41
2022-09-20T16:48:30.451Z,100430.28
2022-09-20T16:53:32.151Z,100422.28
2022-09-20T16:58:36.547Z,100431.53
2022-09-20T17:03:40.836Z,100444.00
2022-09-20T17:08:45.122Z,100458.31
2022-09-20T17:13:47.385Z,100498.78
2022-09-20T17:18:58.223Z,100502.72
2022-09-20T17:24:00.606Z,100499.44
2022-09-20T17:29:06.718Z,100501.19
2022-09-20T17:34:11.037Z,100499.25
2022-09-20T17:39:14.382Z,100501.66
2022-09-20T17:44:16.802Z,100503.78
2022-09-20T17:49:22.372Z,100511.59
2022-09-20T17:54:24.731Z,100512.59
2022-09-20T17:59:26.432Z,100506.75
2022-09-20T18:04:27.984Z,100512.31
2022-09-20T18:09:29.626Z,100529.25
2022-09-20T18:14:32.580Z,100523.69
2022-09-20T18:19:34.431Z,100521.78
2022-09-20T18:24:35.961Z,100536.75
2022-09-20T18:29:37.511Z,100537.97
2022-09-20T18:34:39.555Z,100542.03
2022-09-20T18:39:41.077Z,100545.00
2022-09-20T18:44:43.921Z,100546.34
2022-09-20T18:49:45.444Z,100552.84
2022-09-20T18:54:47.027Z,100563.44
2022-09-20T18:59:54.356Z,100563.47
2022-09-20T19:05:49.279Z,100567.41
2022-09-20T19:10:57.227Z,100568.41
2022-09-20T19:16:04.651Z,100584.84
2022-09-20T19:21:17.614Z,100581.22
2022-09-20T19:26:24.793Z,100578.72
2022-09-20T19:31:28.377Z,100591.03
2022-09-20T19:37:03.578Z,100589.28
2022-09-20T19:42:14.816Z,100593.53
2022-09-20T19:47:25.185Z,100605.31
2022-09-20T19:52:27.011Z,100612.41
2022-09-20T19:57:39.746Z,100606.88
2022-09-20T20:02:45.174Z,100610.72
2022-09-20T20:08:14.933Z,100603.88
2022-09-20T20:14:06.291Z,100616.31
2022-09-20T20:19:24.803Z,100628.84
2022-09-20T20:24:55.725Z,100627.72
2022-09-20T20:29:57.536Z,100636.13
2022-09-20T20:34:59.061Z,100636.31
2022-09-20T20:40:00.893Z,100642.94
2022-09-20T20:45:02.594Z,100646.19
2022-09-20T20:50:04.907Z,100650.00
2022-09-20T20:55:06.959Z,100651.94
2022-09-20T21:00:09.144Z,100657.28
2022-09-20T21:05:10.692Z,100659.09
2022-09-20T21:10:12.794Z,100654.78
2022-09-20T21:15:14.833Z,100662.53
2022-09-20T21:20:16.414Z,100668.63
2022-09-20T21:25:18.006Z,100670.44
2022-09-20T21:30:20.614Z,100669.50
2022-09-20T21:35:24.083Z,100673.88
2022-09-20T21:40:25.626Z,100676.50
2022-09-20T21:45:29.616Z,100678.31
2022-09-20T21:50:31.137Z,100675.84
2022-09-20T21:55:33.468Z,100690.50
2022-09-20T22:00:35.849Z,100688.56
2022-09-20T22:05:37.657Z,100693.91
2022-09-20T22:10:39.209Z,100703.50
2022-09-20T22:15:40.814Z,100699.09
2022-09-20T22:20:42.478Z,100702.59
2022-09-20T22:25:43.988Z,100705.19
2022-09-20T22:30:45.632Z,100702.69
2022-09-20T22:35:47.258Z,100701.06
2022-09-20T22:40:53.793Z,100698.38
2022-09-20T22:46:02.457Z,100700.84
2022-09-20T22:51:11.879Z,100701.97
2022-09-20T22:56:16.411Z,100695.06
2022-09-20T23:01:26.503Z,100698.81
2022-09-20T23:06:31.464Z,100697.94
2022-09-20T23:11:33.451Z,100701.09
2022-09-20T23:16:37.197Z,100701.25
2022-09-20T23:21:40.598Z,100701.34
2022-09-20T23:26:43.812Z,100713.56
2022-09-20T23:31:47.338Z,100712.72
2022-09-20T23:36:49.057Z,100709.25
2022-09-20T23:41:51.434Z,100712.66
2022-09-20T23:46:53.090Z,100710.84
2022-09-20T23:51:54.645Z,100711.72
2022-09-20T23:56:56.190Z,100715.06
